createdAt,value
2022-08-07T00:01:12.463Z,99735.50
2022-08-07T00:06:32.948Z,99734.95
2022-08-07T00:11:39.957Z,99732.83
2022-08-07T00:17:02.545Z,99728.64
2022-08-07T00:22:05.869Z,99727.95
2022-08-07T00:27:09.393Z,99733.04
2022-08-07T00:32:14.179Z,99734.88
2022-08-07T00:37:18.162Z,99737.13
2022-08-07T00:42:29.209Z,99731.32
2022-08-07T00:48:08.866Z,99739.02
2022-08-07T00:52:55.543Z,99750.32
2022-08-07T00:57:58.475Z,99756.45
2022-08-07T01:03:01.681Z,99755.88
2022-08-07T01:08:05.469Z,99749.30
2022-08-07T01:13:12.697Z,99745.10
2022-08-07T01:18:20.580Z,99744.34
2022-08-07T01:23:36.353Z,99744.63
2022-08-07T01:28:48.324Z,99742.02
2022-08-07T01:33:57.594Z,99748.21
2022-08-07T01:39:10.104Z,99743.93
2022-08-07T01:44:15.555Z,99737.02
2022-08-07T01:49:22.203Z,99734.72
2022-08-07T01:54:32.799Z,99731.90
2022-08-07T01:59:45.141Z,99735.51
2022-08-07T02:04:57.421Z,99737.42
2022-08-07T02:10:06.528Z,99737.14
2022-08-07T02:15:15.146Z,99733.97
2022-08-07T02:20:23.542Z,99732.98
2022-08-07T02:26:10.519Z,99731.08
2022-08-07T02:30:52.933Z,99736.86
2022-08-07T02:36:30.213Z,99738.91
2022-08-07T02:41:22.150Z,99737.13
2022-08-07T02:46:28.778Z,99741.27
2022-08-07T02:51:42.404Z,99742.35
2022-08-07T02:56:56.200Z,99744.94
2022-08-07T03:02:02.191Z,99743.95
2022-08-07T03:07:10.469Z,99746.40
2022-08-07T03:12:22.413Z,99741.87
2022-08-07T03:17:52.839Z,99743.66
2022-08-07T03:22:58.749Z,99746.39
2022-08-07T03:28:09.784Z,99748.02
2022-08-07T03:33:32.247Z,99746.58
2022-08-07T03:38:45.163Z,99747.10
2022-08-07T03:43:57.215Z,99746.95
2022-08-07T03:49:03.516Z,99750.83
2022-08-07T03:54:36.186Z,99753.20
2022-08-07T03:59:35.215Z,99754.34
2022-08-07T04:04:38.217Z,99761.73
2022-08-07T04:09:45.264Z,99767.36
2022-08-07T04:14:57.084Z,99768.00
2022-08-07T04:20:00.342Z,99768.02
2022-08-07T04:25:12.735Z,99767.04
2022-08-07T04:30:35.942Z,99768.83
2022-08-07T04:35:51.370Z,99766.83
2022-08-07T04:40:59.892Z,99769.15
2022-08-07T04:46:29.539Z,99770.16
2022-08-07T04:51:51.520Z,99774.11
2022-08-07T04:58:24.428Z,99769.30
2022-08-07T05:02:57.082Z,99780.02
2022-08-07T05:08:06.324Z,99789.92
2022-08-07T05:14:56.530Z,99791.86
2022-08-07T05:19:15.676Z,99799.81
2022-08-07T05:24:24.555Z,99795.73
2022-08-07T05:29:50.896Z,99801.02
2022-08-07T05:34:56.785Z,99798.58
2022-08-07T05:40:14.236Z,99798.21
2022-08-07T05:45:28.218Z,99810.54
2022-08-07T05:50:50.577Z,99816.59
2022-08-07T05:56:01.975Z,99815.63
2022-08-07T06:01:11.330Z,99815.47
2022-08-07T06:06:19.030Z,99816.56
2022-08-07T06:11:23.545Z,99817.17
2022-08-07T06:16:31.745Z,99815.37
2022-08-07T06:22:16.545Z,99819.52
2022-08-07T06:26:59.796Z,99819.33
2022-08-07T06:32:07.470Z,99822.65
2022-08-07T06:37:11.354Z,99821.22
2022-08-07T06:42:33.003Z,99826.43
2022-08-07T06:48:02.389Z,99825.77
2022-08-07T06:55:28.913Z,99824.32
2022-08-07T07:00:12.871Z,99831.44
2022-08-07T07:04:27.929Z,99836.20
2022-08-07T07:09:36.355Z,99838.80
2022-08-07T07:15:03.777Z,99831.25
2022-08-07T07:20:21.918Z,99830.54
2022-08-07T07:26:34.583Z,99820.83
2022-08-07T07:31:17.325Z,99824.31
2022-08-07T07:36:32.198Z,99829.40
2022-08-07T07:42:02.337Z,99825.11
2022-08-07T07:47:14.014Z,99827.67
2022-08-07T07:52:23.583Z,99825.73
2022-08-07T07:57:43.886Z,99828.97
2022-08-07T08:03:04.768Z,99828.73
2022-08-07T08:08:34.983Z,99829.57
2022-08-07T08:13:54.189Z,99824.83
2022-08-07T08:19:18.081Z,99828.88
2022-08-07T08:24:46.613Z,99819.67
2022-08-07T08:29:55.921Z,99820.39
2022-08-07T08:34:59.980Z,99822.44
2022-08-07T08:40:12.370Z,99822.82
2022-08-07T08:45:58.686Z,99819.17
2022-08-07T08:51:14.660Z,99818.70
2022-08-07T08:56:36.172Z,99825.80
2022-08-07T09:01:49.088Z,99824.44
2022-08-07T09:07:02.407Z,99822.54
2022-08-07T09:12:30.592Z,99815.17
2022-08-07T09:17:59.397Z,99816.13
2022-08-07T09:24:30.794Z,99809.96
2022-08-07T09:30:06.372Z,99804.60
2022-08-07T09:36:04.124Z,99794.24
2022-08-07T09:40:50.206Z,99787.60
2022-08-07T09:47:37.204Z,99787.24
2022-08-07T09:52:10.497Z,99783.65
2022-08-07T09:57:36.768Z,99775.39
2022-08-07T10:04:04.919Z,99764.83
2022-08-07T10:09:15.553Z,99766.54
2022-08-07T10:14:38.869Z,99760.30
2022-08-07T10:20:03.467Z,99756.87
2022-08-07T10:25:22.594Z,99754.30
2022-08-07T10:30:44.792Z,99748.54
2022-08-07T10:36:10.829Z,99745.42
2022-08-07T10:41:52.843Z,99740.85
2022-08-07T10:47:06.011Z,99738.33
2022-08-07T10:52:34.123Z,99731.21
2022-08-07T10:58:02.704Z,99730.61
2022-08-07T11:03:17.113Z,99727.98
2022-08-07T11:08:32.557Z,99724.02
2022-08-07T11:14:45.363Z,99718.80
2022-08-07T11:19:35.616Z,99711.04
2022-08-07T11:24:51.923Z,99706.37
2022-08-07T11:30:17.720Z,99708.16
2022-08-07T11:35:28.600Z,99704.15
2022-08-07T11:41:30.967Z,99701.77
2022-08-07T11:47:06.743Z,99697.23
2022-08-07T11:52:39.930Z,99690.45
2022-08-07T11:58:01.571Z,99686.36
2022-08-07T12:03:42.040Z,99682.33
2022-08-07T12:09:07.576Z,99674.45
2022-08-07T12:14:27.745Z,99668.99
2022-08-07T12:19:56.396Z,99665.16
2022-08-07T12:26:05.901Z,99663.63
2022-08-07T12:30:56.255Z,99658.06
2022-08-07T12:36:02.310Z,99657.47
2022-08-07T12:41:10.038Z,99656.24
2022-08-07T12:46:26.001Z,99655.69
2022-08-07T12:52:11.803Z,99651.55
2022-08-07T12:57:12.170Z,99644.94
2022-08-07T13:03:08.298Z,99643.40
2022-08-07T13:08:57.787Z,99637.64
2022-08-07T13:14:16.573Z,99638.45
2022-08-07T13:19:50.489Z,99632.59
2022-08-07T13:25:00.244Z,99627.86
2022-08-07T13:30:19.730Z,99620.55
2022-08-07T13:35:59.528Z,99617.27
2022-08-07T13:41:32.086Z,99608.11
2022-08-07T13:46:49.529Z,99603.95
2022-08-07T13:52:04.771Z,99594.29
2022-08-07T13:57:23.895Z,99583.51
2022-08-07T14:02:33.626Z,99574.13
2022-08-07T14:08:00.231Z,99573.20
2022-08-07T14:13:06.235Z,99571.14
2022-08-07T14:18:28.314Z,99565.29
2022-08-07T14:24:00.408Z,99561.75
2022-08-07T14:29:08.868Z,99554.52
2022-08-07T14:34:30.238Z,99550.48
2022-08-07T14:40:17.798Z,99556.71
2022-08-07T14:45:21.393Z,99555.15
2022-08-07T14:50:28.034Z,99549.09
2022-08-07T14:55:34.657Z,99541.44
2022-08-07T15:00:59.697Z,99537.98
2022-08-07T15:06:25.233Z,99532.45
2022-08-07T15:11:53.060Z,99527.39
2022-08-07T15:17:01.200Z,99531.60
2022-08-07T15:22:08.868Z,99526.13
2022-08-07T15:27:29.974Z,99524.83
2022-08-07T15:32:50.699Z,99520.77
2022-08-07T15:38:17.583Z,99520.71
2022-08-07T15:49:13.276Z,99511.74
2022-08-07T15:54:20.232Z,99511.45
2022-08-07T15:59:39.993Z,99504.97
2022-08-07T16:04:47.581Z,99501.69
2022-08-07T16:09:57.356Z,99503.86
2022-08-07T16:15:55.482Z,99506.51
2022-08-07T16:21:53.717Z,99501.73
2022-08-07T16:26:59.377Z,99498.52
2022-08-07T16:32:33.237Z,99497.75
2022-08-07T16:38:11.292Z,99497.02
2022-08-07T16:43:23.589Z,99500.05
2022-08-07T16:50:20.186Z,99497.52
2022-08-07T16:54:55.038Z,99497.63
2022-08-07T17:00:29.909Z,99499.14
2022-08-07T17:06:29.937Z,99498.15
2022-08-07T17:12:04.524Z,99500.67
2022-08-07T17:17:08.525Z,99500.88
2022-08-07T17:22:30.242Z,99500.20
2022-08-07T17:27:51.022Z,99499.62
2022-08-07T17:34:08.791Z,99506.92
2022-08-07T17:38:44.582Z,99505.38
2022-08-07T17:44:01.718Z,99503.09
2022-08-07T17:49:23.162Z,99505.35
2022-08-07T17:54:53.899Z,99512.33
2022-08-07T18:00:11.561Z,99514.96
2022-08-07T18:06:01.689Z,99520.59
2022-08-07T18:12:07.152Z,99524.77
2022-08-07T18:16:58.716Z,99527.63
2022-08-07T18:22:16.983Z,99532.73
2022-08-07T18:27:38.409Z,99535.26
2022-08-07T18:33:20.030Z,99539.80
2022-08-07T18:38:56.300Z,99545.56
2022-08-07T18:44:28.588Z,99546.08
2022-08-07T18:50:30.415Z,99549.23
2022-08-07T18:55:42.831Z,99550.44
2022-08-07T19:02:18.750Z,99556.81
2022-08-07T19:07:10.265Z,99556.38
2022-08-07T19:12:13.164Z,99559.33
2022-08-07T19:17:59.054Z,99557.83
2022-08-07T19:23:18.465Z,99567.06
2022-08-07T19:30:53.494Z,99564.40
2022-08-07T19:34:02.803Z,99569.31
2022-08-07T19:39:09.271Z,99571.77
2022-08-07T19:44:21.660Z,99570.88
2022-08-07T19:49:58.192Z,99573.06
2022-08-07T19:54:55.822Z,99572.27
2022-08-07T20:00:08.891Z,99578.07
2022-08-07T20:05:21.301Z,99580.02
2022-08-07T20:10:37.234Z,99581.95
2022-08-07T20:15:58.321Z,99580.38
2022-08-07T20:21:14.339Z,99588.85
2022-08-07T20:26:29.932Z,99589.21
2022-08-07T20:31:36.842Z,99587.62
2022-08-07T20:36:44.136Z,99586.40
2022-08-07T20:41:55.061Z,99591.90
2022-08-07T20:47:05.560Z,99602.27
2022-08-07T20:52:30.117Z,99605.02
2022-08-07T20:58:02.283Z,99608.59
2022-08-07T21:03:07.892Z,99608.67
2022-08-07T21:08:15.806Z,99609.55
2022-08-07T21:13:24.405Z,99611.55
2022-08-07T21:18:36.016Z,99610.09
2022-08-07T21:24:10.360Z,99615.18
2022-08-07T21:29:22.062Z,99612.73
2022-08-07T21:34:46.134Z,99610.55
2022-08-07T21:40:27.586Z,99610.89
2022-08-07T21:46:08.512Z,99608.95
2022-08-07T21:51:25.777Z,99609.50
2022-08-07T21:56:47.159Z,99610.92
2022-08-07T22:02:11.315Z,99611.31
2022-08-07T22:07:23.225Z,99614.16
2022-08-07T22:12:53.860Z,99611.77
2022-08-07T22:18:02.349Z,99613.38
2022-08-07T22:23:16.877Z,99614.02
2022-08-07T22:28:33.727Z,99615.61
2022-08-07T22:33:56.269Z,99614.17
2022-08-07T22:39:13.473Z,99613.50
2022-08-07T22:44:25.196Z,99607.35
2022-08-07T22:49:51.667Z,99602.95
2022-08-07T22:55:14.861Z,99609.02
2022-08-07T23:00:34.867Z,99607.20
2022-08-07T23:06:08.350Z,99602.87
2022-08-07T23:11:35.237Z,99606.75
2022-08-07T23:17:15.696Z,99604.81
2022-08-07T23:22:53.331Z,99598.41
2022-08-07T23:28:28.581Z,99595.40
2022-08-07T23:34:35.850Z,99592.23
2022-08-07T23:39:40.954Z,99592.87
2022-08-07T23:45:03.735Z,99592.45
2022-08-07T23:50:24.815Z,99593.92
2022-08-07T23:55:52.464Z,99593.27
